createdAt,value
2024-05-09T00:00:22.162Z,78.58
2024-05-09T00:00:47.960Z,78.58
2024-05-09T00:01:14.258Z,78.68
2024-05-09T00:01:47.207Z,78.68
2024-05-09T00:02:19.925Z,78.78
2024-05-09T00:02:52.665Z,78.89
2024-05-09T00:03:25.345Z,78.78
2024-05-09T00:03:58.113Z,78.47
2024-05-09T00:04:30.788Z,78.27
2024-05-09T00:05:03.670Z,78.30
2024-05-09T00:05:37.183Z,78.51
2024-05-09T00:06:03.802Z,78.61
2024-05-09T00:06:36.533Z,78.61
2024-05-09T00:07:09.215Z,78.72
2024-05-09T00:07:41.930Z,78.92
2024-05-09T00:08:14.633Z,79.03
2024-05-09T00:08:47.502Z,79.13
2024-05-09T00:09:20.149Z,79.13
2024-05-09T00:09:52.830Z,79.13
2024-05-09T00:10:33.326Z,79.23
2024-05-09T00:10:57.650Z,79.13
2024-05-09T00:11:23.950Z,79.23
2024-05-09T00:11:56.933Z,79.23
2024-05-09T00:12:29.644Z,79.33
2024-05-09T00:13:02.323Z,79.33
2024-05-09T00:13:34.978Z,79.44
2024-05-09T00:14:07.657Z,79.44
2024-05-09T00:14:40.362Z,79.54
2024-05-09T00:15:13.201Z,79.54
2024-05-09T00:15:45.851Z,79.64
2024-05-09T00:16:18.523Z,79.75
2024-05-09T00:16:51.381Z,79.64
2024-05-09T00:17:24.189Z,79.54
2024-05-09T00:17:57.074Z,79.54
2024-05-09T00:18:30.220Z,79.44
2024-05-09T00:18:56.580Z,79.44
2024-05-09T00:19:29.439Z,79.33
2024-05-09T00:20:02.204Z,79.44
2024-05-09T00:20:38.797Z,79.33
2024-05-09T00:21:07.049Z,79.33
2024-05-09T00:21:33.269Z,79.44
2024-05-09T00:22:05.950Z,79.33
2024-05-09T00:22:38.636Z,79.33
2024-05-09T00:23:12.542Z,79.44
2024-05-09T00:23:42.428Z,79.44
2024-05-09T00:24:15.079Z,79.44
2024-05-09T00:24:47.760Z,79.54
2024-05-09T00:25:20.415Z,79.54
2024-05-09T00:25:53.159Z,79.33
2024-05-09T00:26:25.833Z,79.44
2024-05-09T00:26:58.503Z,79.64
2024-05-09T00:27:31.175Z,79.54
2024-05-09T00:28:03.854Z,79.44
2024-05-09T00:28:36.519Z,79.44
2024-05-09T00:29:09.232Z,79.44
2024-05-09T00:29:41.891Z,79.64
2024-05-09T00:30:21.380Z,79.79
2024-05-09T00:30:46.666Z,79.79
2024-05-09T00:31:12.829Z,79.79
2024-05-09T00:31:45.523Z,79.99
2024-05-09T00:32:18.415Z,79.99
2024-05-09T00:32:51.332Z,79.99
2024-05-09T00:33:17.977Z,80.09
2024-05-09T00:33:44.406Z,79.99
2024-05-09T00:34:17.360Z,79.88
2024-05-09T00:34:50.084Z,79.99
2024-05-09T00:35:22.792Z,80.19
2024-05-09T00:35:55.561Z,80.19
2024-05-09T00:36:28.243Z,80.19
2024-05-09T00:37:00.901Z,80.19
2024-05-09T00:37:33.577Z,80.19
2024-05-09T00:38:06.642Z,80.09
2024-05-09T00:38:33.097Z,80.19
2024-05-09T00:39:05.862Z,80.40
2024-05-09T00:39:38.645Z,80.40
2024-05-09T00:40:18.327Z,80.61
2024-05-09T00:40:43.898Z,80.75
2024-05-09T00:41:10.134Z,80.85
2024-05-09T00:41:42.866Z,80.85
2024-05-09T00:42:15.513Z,81.16
2024-05-09T00:42:48.188Z,81.37
2024-05-09T00:43:20.860Z,81.37
2024-05-09T00:43:53.628Z,81.26
2024-05-09T00:44:26.372Z,81.16
2024-05-09T00:44:59.078Z,81.16
2024-05-09T00:45:31.808Z,81.26
2024-05-09T00:46:04.970Z,81.37
2024-05-09T00:46:31.122Z,81.47
2024-05-09T00:47:03.963Z,81.57
2024-05-09T00:47:35.076Z,81.47
2024-05-09T00:48:09.442Z,81.37
2024-05-09T00:48:36.849Z,81.26
2024-05-09T00:49:09.712Z,81.16
2024-05-09T00:49:42.650Z,81.16
2024-05-09T00:50:12.864Z,81.16
2024-05-09T00:50:41.800Z,81.16
2024-05-09T00:51:08.368Z,81.05
2024-05-09T00:51:41.054Z,81.05
2024-05-09T00:52:13.706Z,81.05
2024-05-09T00:52:46.442Z,81.05
2024-05-09T00:53:19.295Z,81.05
2024-05-09T00:53:52.046Z,81.16
2024-05-09T00:54:24.718Z,81.26
2024-05-09T00:54:57.385Z,81.30
2024-05-09T00:55:30.076Z,81.26
2024-05-09T00:56:03.080Z,81.30
2024-05-09T00:56:35.835Z,81.20
2024-05-09T00:57:08.546Z,81.20
2024-05-09T00:57:41.311Z,81.20
2024-05-09T00:58:13.957Z,81.30
2024-05-09T00:58:46.673Z,81.40
2024-05-09T00:59:19.411Z,81.51
2024-05-09T00:59:52.120Z,81.61
2024-05-09T01:00:31.616Z,81.61
2024-05-09T01:00:56.979Z,81.61
2024-05-09T01:01:23.223Z,81.71
2024-05-09T01:01:56.017Z,81.71
2024-05-09T01:02:28.885Z,81.71
2024-05-09T01:03:01.943Z,81.61
2024-05-09T01:03:28.396Z,81.71
2024-05-09T01:04:01.338Z,81.81
2024-05-09T01:04:34.127Z,81.81
2024-05-09T01:05:06.892Z,82.02
2024-05-09T01:05:40.170Z,82.12
2024-05-09T01:06:06.749Z,82.12
2024-05-09T01:06:39.457Z,82.12
2024-05-09T01:07:12.126Z,82.06
2024-05-09T01:07:44.854Z,81.96
2024-05-09T01:08:17.563Z,82.06
2024-05-09T01:08:50.282Z,82.16
2024-05-09T01:09:22.946Z,82.37
2024-05-09T01:09:55.705Z,82.57
2024-05-09T01:10:34.115Z,82.68
2024-05-09T01:11:00.651Z,82.68
2024-05-09T01:11:26.971Z,82.78
2024-05-09T01:11:59.750Z,82.89
2024-05-09T01:12:32.537Z,82.89
2024-05-09T01:13:05.678Z,83.09
2024-05-09T01:13:32.027Z,83.19
2024-05-09T01:14:04.739Z,83.29
2024-05-09T01:14:37.586Z,83.19
2024-05-09T01:15:10.256Z,83.09
2024-05-09T01:15:42.988Z,82.89
2024-05-09T01:16:15.660Z,82.89
2024-05-09T01:16:48.374Z,82.78
2024-05-09T01:17:21.136Z,82.78
2024-05-09T01:17:54.165Z,82.89
2024-05-09T01:18:20.604Z,82.89
2024-05-09T01:18:51.745Z,82.98
2024-05-09T01:19:24.633Z,82.98
2024-05-09T01:19:57.306Z,83.09
2024-05-09T01:20:37.524Z,83.09
2024-05-09T01:21:01.243Z,83.19
2024-05-09T01:21:34.091Z,83.29
2024-05-09T01:22:06.767Z,83.29
2024-05-09T01:22:39.436Z,83.29
2024-05-09T01:23:12.770Z,83.40
2024-05-09T01:23:43.324Z,83.29
2024-05-09T01:24:15.991Z,83.29
2024-05-09T01:24:48.653Z,83.29
2024-05-09T01:25:21.337Z,83.29
2024-05-09T01:25:54.202Z,83.29
2024-05-09T01:26:26.893Z,83.40
2024-05-09T01:26:59.553Z,83.40
2024-05-09T01:27:32.221Z,83.40
2024-05-09T01:28:04.903Z,83.40
2024-05-09T01:28:37.578Z,83.29
2024-05-09T01:29:10.457Z,83.44
2024-05-09T01:29:43.115Z,83.44
2024-05-09T01:30:21.038Z,83.44
2024-05-09T01:30:47.898Z,83.44
2024-05-09T01:31:14.086Z,83.54
2024-05-09T01:31:46.878Z,83.54
2024-05-09T01:32:19.890Z,83.54
2024-05-09T01:32:46.271Z,83.54
2024-05-09T01:33:19.138Z,83.54
2024-05-09T01:33:51.977Z,83.54
2024-05-09T01:34:24.669Z,83.64
2024-05-09T01:34:57.360Z,83.54
2024-05-09T01:35:30.032Z,83.44
2024-05-09T01:36:02.716Z,83.44
2024-05-09T01:36:35.388Z,83.44
2024-05-09T01:37:08.060Z,83.54
2024-05-09T01:37:40.862Z,83.54
2024-05-09T01:38:14.200Z,83.44
2024-05-09T01:38:40.522Z,83.33
2024-05-09T01:39:13.222Z,83.33
2024-05-09T01:39:46.015Z,83.33
2024-05-09T01:40:25.188Z,83.44
2024-05-09T01:40:50.857Z,83.54
2024-05-09T01:41:17.063Z,83.54
2024-05-09T01:41:49.731Z,83.58
2024-05-09T01:42:22.402Z,83.58
2024-05-09T01:42:55.920Z,83.68
2024-05-09T01:43:22.102Z,83.78
2024-05-09T01:43:54.980Z,83.78
2024-05-09T01:44:27.781Z,83.78
2024-05-09T01:45:00.447Z,83.89
2024-05-09T01:45:33.273Z,83.89
2024-05-09T01:46:06.088Z,83.89
2024-05-09T01:46:37.078Z,83.89
2024-05-09T01:47:09.910Z,83.99
2024-05-09T01:47:42.931Z,83.99
2024-05-09T01:48:09.763Z,83.99
2024-05-09T01:48:36.815Z,84.09
2024-05-09T01:49:09.688Z,84.09
2024-05-09T01:49:42.436Z,84.09
2024-05-09T01:50:43.359Z,84.30
2024-05-09T01:51:10.097Z,84.41
2024-05-09T01:51:42.817Z,84.41
2024-05-09T01:52:15.497Z,84.51
2024-05-09T01:52:48.199Z,84.61
2024-05-09T01:53:20.884Z,84.61
2024-05-09T01:53:53.581Z,84.72
2024-05-09T01:54:26.265Z,84.72
2024-05-09T01:55:00.780Z,84.72
2024-05-09T01:55:28.259Z,84.61
2024-05-09T01:56:01.661Z,84.61
2024-05-09T01:56:27.924Z,84.72
2024-05-09T01:57:02.078Z,84.72
2024-05-09T01:57:28.219Z,84.72
2024-05-09T01:58:00.926Z,84.72
2024-05-09T01:58:33.691Z,84.72
2024-05-09T01:59:06.486Z,84.72
2024-05-09T01:59:39.264Z,84.72
2024-05-09T02:00:41.854Z,84.61
2024-05-09T02:01:09.613Z,84.61
2024-05-09T02:01:55.627Z,84.65
2024-05-09T02:02:08.086Z,84.55
2024-05-09T02:02:34.526Z,84.65
2024-05-09T02:03:07.450Z,84.65
2024-05-09T02:03:33.898Z,84.75
2024-05-09T02:04:07.052Z,84.75
2024-05-09T02:04:33.530Z,84.75
2024-05-09T02:05:06.486Z,84.75
2024-05-09T02:05:39.464Z,84.75
2024-05-09T02:06:12.281Z,84.86
2024-05-09T02:06:45.072Z,84.86
2024-05-09T02:07:17.712Z,84.86
2024-05-09T02:07:50.465Z,84.86
2024-05-09T02:08:23.162Z,84.86
2024-05-09T02:08:55.852Z,84.86
2024-05-09T02:09:28.513Z,84.86
2024-05-09T02:10:01.205Z,84.86
2024-05-09T02:10:33.987Z,84.75
2024-05-09T02:11:06.782Z,84.75
2024-05-09T02:11:39.726Z,84.65
2024-05-09T02:12:06.314Z,84.75
2024-05-09T02:12:32.965Z,84.86
2024-05-09T02:12:59.165Z,84.86
2024-05-09T02:13:31.969Z,84.86
2024-05-09T02:14:04.635Z,84.75
2024-05-09T02:14:37.483Z,84.75
2024-05-09T02:15:10.299Z,84.65
2024-05-09T02:15:42.965Z,84.69
2024-05-09T02:16:15.630Z,84.59
2024-05-09T02:16:48.329Z,84.59
2024-05-09T02:17:21.108Z,84.69
2024-05-09T02:17:54.067Z,85.00
2024-05-09T02:18:20.735Z,85.10
2024-05-09T02:18:53.524Z,85.21
2024-05-09T02:19:26.336Z,85.31
2024-05-09T02:19:59.027Z,85.41
2024-05-09T02:20:59.286Z,85.62
2024-05-09T02:21:31.948Z,85.62
2024-05-09T02:22:04.618Z,85.72
2024-05-09T02:22:37.313Z,85.72
2024-05-09T02:23:10.126Z,85.72
2024-05-09T02:23:42.922Z,85.72
2024-05-09T02:24:15.830Z,85.62
2024-05-09T02:24:48.466Z,85.62
2024-05-09T02:25:21.143Z,85.72
2024-05-09T02:25:53.877Z,85.62
2024-05-09T02:26:26.636Z,85.62
2024-05-09T02:26:59.351Z,85.62
2024-05-09T02:27:32.145Z,85.62
2024-05-09T02:28:04.854Z,85.62
2024-05-09T02:28:37.515Z,85.62
2024-05-09T02:29:10.355Z,85.62
2024-05-09T02:29:43.094Z,85.62
2024-05-09T02:30:22.838Z,85.66
2024-05-09T02:30:48.088Z,85.66
2024-05-09T02:31:14.247Z,85.76
2024-05-09T02:31:46.986Z,85.76
2024-05-09T02:32:19.813Z,85.55
2024-05-09T02:32:52.601Z,85.45
2024-05-09T02:33:25.570Z,85.35
2024-05-09T02:33:52.106Z,85.24
2024-05-09T02:34:18.474Z,85.35
2024-05-09T02:34:51.244Z,85.35
2024-05-09T02:35:24.061Z,85.55
2024-05-09T02:35:56.810Z,85.55
2024-05-09T02:36:29.478Z,85.66
2024-05-09T02:37:02.156Z,85.76
2024-05-09T02:37:34.848Z,85.97
2024-05-09T02:38:07.551Z,86.07
2024-05-09T02:38:40.417Z,86.07
2024-05-09T02:39:13.083Z,86.11
2024-05-09T02:39:45.772Z,86.21
2024-05-09T02:40:25.420Z,86.21
2024-05-09T02:40:50.581Z,86.21
2024-05-09T02:41:16.868Z,86.21
2024-05-09T02:41:49.559Z,86.32
2024-05-09T02:42:22.235Z,86.32
2024-05-09T02:42:54.904Z,86.42
2024-05-09T02:43:27.572Z,86.42
2024-05-09T02:44:00.291Z,86.42
2024-05-09T02:44:32.987Z,86.42
2024-05-09T02:45:05.671Z,86.42
2024-05-09T02:45:38.388Z,86.52
2024-05-09T02:46:11.068Z,86.52
2024-05-09T02:46:43.886Z,86.52
2024-05-09T02:47:16.671Z,86.52
2024-05-09T02:47:49.597Z,86.52
2024-05-09T02:48:16.260Z,86.52
2024-05-09T02:48:42.718Z,86.42
2024-05-09T02:49:15.705Z,86.42
2024-05-09T02:49:41.993Z,86.52
2024-05-09T02:50:19.411Z,86.52
2024-05-09T02:50:46.873Z,86.52
2024-05-09T02:51:13.213Z,86.52
2024-05-09T02:51:46.005Z,86.63
2024-05-09T02:52:18.805Z,86.73
2024-05-09T02:52:51.662Z,86.83
2024-05-09T02:53:25.609Z,86.83
2024-05-09T02:53:51.795Z,86.83
2024-05-09T02:54:24.600Z,86.73
2024-05-09T02:54:57.239Z,86.77
2024-05-09T02:55:29.907Z,86.73
2024-05-09T02:56:02.651Z,86.83
2024-05-09T02:56:35.423Z,86.98
2024-05-09T02:57:08.115Z,86.98
2024-05-09T02:57:40.804Z,86.98
2024-05-09T02:58:13.463Z,87.08
2024-05-09T02:58:46.226Z,87.08
2024-05-09T02:59:18.996Z,87.08
2024-05-09T02:59:51.677Z,87.08
2024-05-09T03:00:29.961Z,87.18
2024-05-09T03:00:55.739Z,87.18
2024-05-09T03:01:28.532Z,87.08
2024-05-09T03:02:01.389Z,87.08
2024-05-09T03:02:34.222Z,87.08
2024-05-09T03:03:07.336Z,87.08
2024-05-09T03:03:34.044Z,87.18
2024-05-09T03:04:00.446Z,87.18
2024-05-09T03:04:33.250Z,87.18
2024-05-09T03:05:06.081Z,87.18
2024-05-09T03:05:38.901Z,87.29
2024-05-09T03:06:11.753Z,87.18
2024-05-09T03:06:44.461Z,87.23
2024-05-09T03:07:19.748Z,87.23
2024-05-09T03:07:46.308Z,87.23
2024-05-09T03:08:19.035Z,87.23
2024-05-09T03:08:51.745Z,87.33
2024-05-09T03:09:24.428Z,87.33
2024-05-09T03:09:57.117Z,87.33
2024-05-09T03:10:35.563Z,87.33
2024-05-09T03:11:01.969Z,87.43
2024-05-09T03:11:29.087Z,87.43
2024-05-09T03:11:55.392Z,87.54
2024-05-09T03:12:28.185Z,87.64
2024-05-09T03:13:00.847Z,87.74
2024-05-09T03:13:33.506Z,87.85
2024-05-09T03:14:06.256Z,87.95
2024-05-09T03:14:38.991Z,88.06
2024-05-09T03:15:11.648Z,88.06
2024-05-09T03:15:44.512Z,88.06
2024-05-09T03:16:17.347Z,88.06
2024-05-09T03:16:50.106Z,88.06
2024-05-09T03:17:22.872Z,88.06
2024-05-09T03:17:56.193Z,88.16
2024-05-09T03:18:22.636Z,88.16
2024-05-09T03:18:55.522Z,88.16
2024-05-09T03:19:28.390Z,88.16
2024-05-09T03:20:01.171Z,88.36
2024-05-09T03:20:35.823Z,88.46
2024-05-09T03:21:03.134Z,88.57
2024-05-09T03:21:35.909Z,88.57
2024-05-09T03:22:08.581Z,88.57
2024-05-09T03:22:41.271Z,88.57
2024-05-09T03:23:14.061Z,88.67
2024-05-09T03:23:46.946Z,88.67
2024-05-09T03:24:19.681Z,88.67
2024-05-09T03:24:52.369Z,88.67
2024-05-09T03:25:25.087Z,88.67
2024-05-09T03:25:57.849Z,88.67
2024-05-09T03:26:30.623Z,88.67
2024-05-09T03:27:03.332Z,88.67
2024-05-09T03:27:36.001Z,88.78
2024-05-09T03:28:08.695Z,88.78
2024-05-09T03:28:41.955Z,88.88
2024-05-09T03:29:08.167Z,88.78
2024-05-09T03:29:40.829Z,88.78
2024-05-09T03:30:25.923Z,88.67
2024-05-09T03:30:45.608Z,88.78
2024-05-09T03:31:11.794Z,88.88
2024-05-09T03:31:44.590Z,88.88
2024-05-09T03:32:17.419Z,88.88
2024-05-09T03:32:50.231Z,88.88
2024-05-09T03:33:23.386Z,88.88
2024-05-09T03:33:54.217Z,88.88
2024-05-09T03:34:26.981Z,88.88
2024-05-09T03:34:59.657Z,88.88
2024-05-09T03:35:32.399Z,88.88
2024-05-09T03:36:08.246Z,88.88
2024-05-09T03:36:35.854Z,88.88
2024-05-09T03:37:08.522Z,88.88
2024-05-09T03:37:41.194Z,88.98
2024-05-09T03:38:14.035Z,89.09
2024-05-09T03:38:46.820Z,89.19
2024-05-09T03:39:19.494Z,89.40
2024-05-09T03:39:52.156Z,89.40
2024-05-09T03:40:28.942Z,89.40
2024-05-09T03:40:56.931Z,89.40
2024-05-09T03:41:23.202Z,89.50
2024-05-09T03:41:56.041Z,89.40
2024-05-09T03:42:28.715Z,89.40
2024-05-09T03:43:01.399Z,89.40
2024-05-09T03:43:34.090Z,89.40
2024-05-09T03:44:06.843Z,89.40
2024-05-09T03:44:39.610Z,89.40
2024-05-09T03:45:12.342Z,89.40
2024-05-09T03:45:45.031Z,89.40
2024-05-09T03:46:17.741Z,89.29
2024-05-09T03:46:50.476Z,88.98
2024-05-09T03:47:23.295Z,88.88
2024-05-09T03:47:56.212Z,88.98
2024-05-09T03:48:22.684Z,89.09
2024-05-09T03:48:55.487Z,89.09
2024-05-09T03:49:28.215Z,89.19
2024-05-09T03:50:00.975Z,89.29
2024-05-09T03:50:35.944Z,89.29
2024-05-09T03:51:03.052Z,89.29
2024-05-09T03:51:35.764Z,89.19
2024-05-09T03:52:08.445Z,89.09
2024-05-09T03:52:41.133Z,89.09
2024-05-09T03:53:14.187Z,88.98
2024-05-09T03:53:40.556Z,88.98
2024-05-09T03:54:13.229Z,88.98
2024-05-09T03:54:45.923Z,88.98
2024-05-09T03:55:18.606Z,88.98
2024-05-09T03:55:51.353Z,88.98
2024-05-09T03:56:24.086Z,88.98
2024-05-09T03:56:56.757Z,88.98
2024-05-09T03:57:29.421Z,88.98
2024-05-09T03:58:02.091Z,88.98
2024-05-09T03:58:34.792Z,88.98
2024-05-09T03:59:07.464Z,88.98
2024-05-09T03:59:40.199Z,88.88
2024-05-09T04:00:18.212Z,88.88
2024-05-09T04:00:45.062Z,88.78
2024-05-09T04:01:11.363Z,88.78
2024-05-09T04:01:44.166Z,88.78
2024-05-09T04:02:17.009Z,88.78
2024-05-09T04:02:49.749Z,88.78
2024-05-09T04:03:22.806Z,88.78
2024-05-09T04:03:49.327Z,88.88
2024-05-09T04:04:22.102Z,88.98
2024-05-09T04:04:54.882Z,88.98
2024-05-09T04:05:27.601Z,88.98
2024-05-09T04:06:00.261Z,89.09
2024-05-09T04:06:32.935Z,89.09
2024-05-09T04:07:05.604Z,89.09
2024-05-09T04:07:38.300Z,89.09
2024-05-09T04:08:11.481Z,89.19
2024-05-09T04:08:37.832Z,89.29
2024-05-09T04:09:10.496Z,89.29
2024-05-09T04:09:43.165Z,89.29
2024-05-09T04:10:24.034Z,89.29
2024-05-09T04:10:46.991Z,89.40
2024-05-09T04:11:19.771Z,89.40
2024-05-09T04:11:52.852Z,89.50
2024-05-09T04:12:19.195Z,89.50
2024-05-09T04:12:51.860Z,89.50
2024-05-09T04:13:24.539Z,89.40
2024-05-09T04:13:57.248Z,89.50
2024-05-09T04:14:30.117Z,89.50
2024-05-09T04:15:02.848Z,89.61
2024-05-09T04:15:35.524Z,89.71
2024-05-09T04:16:08.210Z,89.71
2024-05-09T04:16:40.891Z,89.92
2024-05-09T04:17:13.635Z,90.12
2024-05-09T04:17:46.490Z,90.23
2024-05-09T04:18:19.331Z,90.33
2024-05-09T04:18:52.146Z,90.33
2024-05-09T04:19:24.983Z,90.33
2024-05-09T04:19:57.807Z,90.33
2024-05-09T04:20:37.716Z,90.33
2024-05-09T04:21:02.794Z,90.23
2024-05-09T04:21:29.022Z,90.23
2024-05-09T04:22:01.755Z,90.23
2024-05-09T04:22:34.439Z,90.19
2024-05-09T04:23:08.166Z,90.19
2024-05-09T04:23:35.357Z,90.19
2024-05-09T04:24:08.117Z,90.19
2024-05-09T04:24:40.775Z,90.19
2024-05-09T04:25:13.458Z,90.19
2024-05-09T04:25:46.263Z,90.08
2024-05-09T04:26:19.030Z,90.08
2024-05-09T04:26:51.689Z,90.08
2024-05-09T04:27:24.422Z,89.98
2024-05-09T04:27:57.096Z,90.08
2024-05-09T04:28:29.787Z,90.08
2024-05-09T04:29:02.540Z,90.08
2024-05-09T04:29:35.272Z,90.08
2024-05-09T04:30:15.399Z,89.98
2024-05-09T04:30:41.578Z,89.94
2024-05-09T04:31:11.158Z,90.04
2024-05-09T04:31:43.906Z,89.94
2024-05-09T04:32:16.864Z,89.83
2024-05-09T04:32:49.819Z,89.94
2024-05-09T04:33:22.946Z,89.94
2024-05-09T04:33:49.415Z,89.94
2024-05-09T04:34:22.296Z,89.94
2024-05-09T04:34:55.032Z,89.94
2024-05-09T04:35:27.930Z,89.94
2024-05-09T04:36:00.660Z,89.83
2024-05-09T04:36:33.309Z,89.73
2024-05-09T04:37:06.080Z,89.73
2024-05-09T04:37:38.760Z,89.62
2024-05-09T04:38:11.530Z,89.62
2024-05-09T04:38:44.262Z,89.62
2024-05-09T04:39:16.930Z,89.73
2024-05-09T04:39:49.639Z,89.73
2024-05-09T04:40:28.575Z,89.73
2024-05-09T04:40:54.530Z,89.73
2024-05-09T04:41:20.926Z,89.52
2024-05-09T04:41:53.578Z,89.38
2024-05-09T04:42:26.264Z,89.38
2024-05-09T04:42:58.943Z,89.38
2024-05-09T04:43:31.627Z,89.48
2024-05-09T04:44:04.395Z,89.48
2024-05-09T04:44:37.093Z,89.48
2024-05-09T04:45:09.746Z,89.48
2024-05-09T04:45:42.463Z,89.59
2024-05-09T04:46:15.116Z,89.59
2024-05-09T04:46:47.856Z,89.59
2024-05-09T04:47:20.663Z,89.59
2024-05-09T04:47:53.628Z,89.59
2024-05-09T04:48:20.155Z,89.79
2024-05-09T04:48:53.123Z,89.69
2024-05-09T04:49:25.880Z,89.86
2024-05-09T04:49:58.743Z,89.89
2024-05-09T04:50:36.708Z,89.89
2024-05-09T04:51:03.687Z,89.75
2024-05-09T04:51:29.886Z,89.65
2024-05-09T04:52:02.562Z,89.65
2024-05-09T04:52:35.256Z,89.65
2024-05-09T04:53:09.565Z,89.75
2024-05-09T04:53:39.133Z,89.95
2024-05-09T04:54:22.216Z,90.06
2024-05-09T04:54:44.958Z,90.06
2024-05-09T04:55:11.119Z,90.06
2024-05-09T04:55:43.860Z,89.95
2024-05-09T04:56:16.576Z,89.86
2024-05-09T04:56:49.287Z,89.86
2024-05-09T04:57:21.982Z,89.86
2024-05-09T04:57:54.694Z,89.86
2024-05-09T04:58:27.389Z,89.95
2024-05-09T04:59:00.136Z,90.06
2024-05-09T04:59:32.925Z,90.06
2024-05-09T05:00:09.429Z,89.95
2024-05-09T05:00:38.869Z,89.75
2024-05-09T05:01:08.859Z,89.65
2024-05-09T05:01:41.553Z,89.61
2024-05-09T05:02:14.345Z,89.54
2024-05-09T05:02:47.180Z,89.40
2024-05-09T05:03:20.285Z,89.40
2024-05-09T05:03:51.200Z,89.50
2024-05-09T05:04:24.028Z,89.29
2024-05-09T05:04:56.912Z,89.19
2024-05-09T05:05:29.731Z,89.09
2024-05-09T05:06:02.572Z,89.09
2024-05-09T05:06:35.313Z,88.98
2024-05-09T05:07:07.979Z,88.98
2024-05-09T05:07:40.662Z,88.89
2024-05-09T05:08:13.979Z,88.89
2024-05-09T05:08:44.456Z,88.98
2024-05-09T05:09:17.204Z,88.98
2024-05-09T05:09:49.945Z,88.89
2024-05-09T05:10:32.885Z,88.74
2024-05-09T05:10:54.775Z,88.74
2024-05-09T05:11:21.005Z,88.53
2024-05-09T05:11:53.824Z,88.43
2024-05-09T05:12:24.949Z,88.32
2024-05-09T05:12:51.582Z,88.43
2024-05-09T05:13:24.906Z,88.43
2024-05-09T05:13:51.598Z,88.53
2024-05-09T05:14:24.349Z,88.43
2024-05-09T05:14:57.431Z,88.32
2024-05-09T05:15:23.605Z,88.32
2024-05-09T05:15:57.771Z,88.43
2024-05-09T05:16:24.634Z,88.32
2024-05-09T05:16:57.358Z,88.32
2024-05-09T05:17:30.298Z,88.32
2024-05-09T05:17:56.750Z,88.53
2024-05-09T05:18:29.728Z,88.53
2024-05-09T05:19:02.513Z,88.18
2024-05-09T05:19:35.444Z,88.18
2024-05-09T05:20:08.654Z,88.08
2024-05-09T05:20:36.652Z,87.98
2024-05-09T05:21:09.402Z,87.87
2024-05-09T05:21:42.079Z,87.77
2024-05-09T05:22:14.751Z,87.66
2024-05-09T05:22:47.516Z,87.66
2024-05-09T05:23:20.466Z,87.66
2024-05-09T05:23:46.689Z,87.77
2024-05-09T05:24:19.356Z,87.77
2024-05-09T05:24:52.039Z,87.87
2024-05-09T05:25:24.695Z,87.66
2024-05-09T05:25:57.463Z,87.66
2024-05-09T05:26:30.216Z,87.77
2024-05-09T05:27:02.892Z,87.83
2024-05-09T05:27:35.592Z,87.83
2024-05-09T05:28:08.259Z,87.63
2024-05-09T05:28:40.955Z,87.42
2024-05-09T05:29:13.728Z,87.32
2024-05-09T05:29:46.472Z,87.32
2024-05-09T05:30:25.057Z,87.11
2024-05-09T05:30:51.242Z,87.11
2024-05-09T05:31:17.450Z,87.01
2024-05-09T05:31:50.245Z,87.11
2024-05-09T05:32:23.107Z,87.42
2024-05-09T05:32:56.182Z,87.32
2024-05-09T05:33:23.251Z,87.32
2024-05-09T05:33:53.655Z,87.17
2024-05-09T05:34:26.402Z,87.38
2024-05-09T05:34:59.233Z,87.59
2024-05-09T05:35:31.987Z,87.38
2024-05-09T05:36:04.713Z,87.27
2024-05-09T05:36:37.443Z,87.17
2024-05-09T05:37:10.139Z,87.17
2024-05-09T05:37:42.834Z,87.17
2024-05-09T05:38:15.749Z,87.07
2024-05-09T05:38:48.700Z,86.72
2024-05-09T05:39:21.437Z,86.61
2024-05-09T05:39:52.517Z,86.61
2024-05-09T05:40:32.982Z,86.52
2024-05-09T05:40:57.319Z,86.52
2024-05-09T05:41:23.524Z,86.61
2024-05-09T05:41:56.283Z,86.61
2024-05-09T05:42:28.941Z,86.61
2024-05-09T05:43:01.631Z,86.82
2024-05-09T05:43:34.428Z,86.93
2024-05-09T05:44:07.087Z,87.03
2024-05-09T05:44:39.788Z,86.82
2024-05-09T05:45:12.483Z,86.61
2024-05-09T05:45:45.179Z,86.41
2024-05-09T05:46:17.978Z,86.27
2024-05-09T05:46:50.634Z,85.86
2024-05-09T05:47:23.394Z,85.75
2024-05-09T05:47:56.484Z,85.65
2024-05-09T05:48:23.183Z,85.55
2024-05-09T05:48:49.659Z,85.65
2024-05-09T05:49:22.623Z,86.06
2024-05-09T05:49:48.965Z,86.27
2024-05-09T05:50:27.828Z,86.27
2024-05-09T05:50:53.737Z,86.27
2024-05-09T05:51:19.973Z,86.06
2024-05-09T05:51:52.686Z,86.06
2024-05-09T05:52:25.531Z,86.06
2024-05-09T05:52:58.242Z,86.16
2024-05-09T05:53:30.945Z,85.92
2024-05-09T05:54:03.609Z,85.82
2024-05-09T05:54:36.278Z,85.82
2024-05-09T05:55:08.970Z,85.82
2024-05-09T05:55:41.845Z,85.71
2024-05-09T05:56:12.783Z,85.51
2024-05-09T05:56:45.545Z,85.51
2024-05-09T05:57:18.294Z,85.71
2024-05-09T05:57:50.952Z,85.47
2024-05-09T05:58:23.635Z,85.06
2024-05-09T05:58:56.508Z,84.85
2024-05-09T05:59:29.258Z,84.75
2024-05-09T06:00:02.202Z,84.54
2024-05-09T06:00:35.267Z,84.54
2024-05-09T06:01:01.138Z,84.54
2024-05-09T06:01:27.515Z,84.75
2024-05-09T06:02:00.425Z,84.95
2024-05-09T06:02:33.215Z,84.75
2024-05-09T06:03:06.338Z,84.54
2024-05-09T06:03:37.245Z,84.30
2024-05-09T06:04:10.139Z,84.09
2024-05-09T06:04:42.886Z,83.99
2024-05-09T06:05:15.728Z,83.89
2024-05-09T06:05:47.061Z,83.68
2024-05-09T06:06:13.382Z,83.58
2024-05-09T06:06:46.025Z,83.58
2024-05-09T06:07:18.712Z,83.58
2024-05-09T06:07:51.423Z,83.58
2024-05-09T06:08:27.098Z,83.33
2024-05-09T06:08:54.999Z,83.13
2024-05-09T06:09:27.685Z,82.92
2024-05-09T06:10:00.371Z,82.82
2024-05-09T06:10:38.350Z,83.03
2024-05-09T06:11:05.190Z,83.44
2024-05-09T06:11:31.759Z,83.23
2024-05-09T06:12:02.695Z,83.13
2024-05-09T06:12:35.370Z,83.09
2024-05-09T06:13:08.061Z,83.50
2024-05-09T06:13:40.714Z,83.70
2024-05-09T06:14:13.533Z,83.61
2024-05-09T06:14:46.291Z,83.29
2024-05-09T06:15:17.384Z,82.78
2024-05-09T06:15:50.056Z,82.37
2024-05-09T06:16:22.722Z,82.33
2024-05-09T06:16:58.052Z,82.23
2024-05-09T06:17:24.608Z,82.13
2024-05-09T06:17:51.008Z,82.03
2024-05-09T06:18:23.987Z,82.23
2024-05-09T06:18:50.529Z,82.23
2024-05-09T06:19:23.448Z,81.30
2024-05-09T06:19:56.493Z,81.00
2024-05-09T06:20:35.288Z,81.16
2024-05-09T06:21:01.325Z,80.96
2024-05-09T06:21:27.581Z,80.86
2024-05-09T06:22:00.257Z,80.35
2024-05-09T06:22:31.365Z,80.35
2024-05-09T06:23:04.151Z,80.24
2024-05-09T06:23:36.968Z,79.63
2024-05-09T06:24:09.640Z,79.90
2024-05-09T06:24:42.977Z,80.00
2024-05-09T06:25:09.131Z,79.80
2024-05-09T06:25:41.903Z,79.49
2024-05-09T06:26:14.793Z,79.69
2024-05-09T06:26:47.473Z,79.69
2024-05-09T06:27:20.283Z,79.69
2024-05-09T06:27:52.942Z,79.69
2024-05-09T06:28:25.630Z,79.59
2024-05-09T06:28:58.378Z,79.75
2024-05-09T06:29:31.282Z,79.86
2024-05-09T06:29:57.587Z,79.45
2024-05-09T06:30:37.807Z,79.14
2024-05-09T06:31:02.466Z,78.83
2024-05-09T06:31:28.625Z,78.12
2024-05-09T06:32:01.428Z,77.71
2024-05-09T06:32:34.331Z,77.77
2024-05-09T06:33:05.952Z,78.19
2024-05-09T06:33:32.825Z,78.28
2024-05-09T06:33:59.365Z,78.49
2024-05-09T06:34:32.423Z,79.11
2024-05-09T06:34:58.687Z,78.70
2024-05-09T06:35:31.629Z,78.66
2024-05-09T06:35:58.010Z,78.97
2024-05-09T06:36:31.491Z,79.38
2024-05-09T06:36:57.643Z,78.93
2024-05-09T06:37:30.432Z,76.17
2024-05-09T06:38:03.097Z,75.04
2024-05-09T06:38:35.887Z,75.55
2024-05-09T06:39:08.637Z,75.45
2024-05-09T06:39:41.319Z,75.42
2024-05-09T06:40:17.472Z,75.52
2024-05-09T06:40:44.705Z,75.93
2024-05-09T06:41:11.171Z,76.03
2024-05-09T06:41:44.032Z,76.09
2024-05-09T06:42:16.712Z,75.99
2024-05-09T06:42:49.386Z,75.89
2024-05-09T06:43:22.050Z,75.79
2024-05-09T06:43:54.818Z,76.09
2024-05-09T06:44:27.586Z,76.16
2024-05-09T06:45:00.385Z,75.24
2024-05-09T06:45:33.034Z,74.02
2024-05-09T06:46:05.853Z,73.10
2024-05-09T06:46:38.518Z,72.75
2024-05-09T06:47:11.280Z,71.94
2024-05-09T06:47:44.160Z,71.83
2024-05-09T06:48:17.044Z,71.83
2024-05-09T06:48:50.023Z,71.53
2024-05-09T06:49:22.857Z,71.42
2024-05-09T06:49:55.587Z,71.53
2024-05-09T06:50:35.277Z,71.59
2024-05-09T06:51:00.386Z,71.59
2024-05-09T06:51:26.569Z,72.00